Time;durP1;ratioP1;P1;durP2;ratioP2;P2;SDS_P1;SDS_P2;PMS_P1;PMS_P2;Temp;Humidity;BMP_temperature;BMP_pressure;BME280_temperature;BME280_humidity;BME280_pressure;Samples;Min_cycle;Max_cycle;Signal;HPM_P1;HPM_P2
2022/01/19 00:01:48;;;;;;;11.25;7.63;;;5.60;99.90;;;5.53;72.90;102779.28;4994989;28;20582;-67
2022/01/19 00:04:16;;;;;;;15.38;8.45;;;5.50;99.90;;;5.50;72.57;102784.94;4995114;28;20594;-68
2022/01/19 00:06:45;;;;;;;13.23;7.70;;;5.50;99.90;;;5.48;72.91;102789.56;4994675;28;20198;-68
2022/01/19 00:09:13;;;;;;;14.80;7.47;;;5.50;99.90;;;5.51;72.91;102777.72;4994721;28;20191;-67
2022/01/19 00:11:41;;;;;;;15.77;8.52;;;5.50;99.90;;;5.50;72.96;102774.19;4994483;28;20210;-67
2022/01/19 00:14:10;;;;;;;17.20;8.30;;;5.50;99.90;;;5.47;73.32;102770.91;4995092;28;20237;-67
2022/01/19 00:16:38;;;;;;;14.88;7.80;;;5.50;99.90;;;5.50;73.46;102773.34;4995287;28;20614;-67
2022/01/19 00:19:08;;;;;;;14.68;7.22;;;5.50;99.90;;;5.58;72.96;102770.88;4995671;28;20206;-66
2022/01/19 00:21:36;;;;;;;18.42;7.78;;;5.50;99.90;;;5.43;73.01;102759.53;4978452;28;20226;-68
2022/01/19 00:24:06;;;;;;;12.77;8.07;;;5.40;99.90;;;5.42;72.88;102757.00;4995507;28;20178;-67
2022/01/19 00:26:36;;;;;;;21.90;8.88;;;5.40;99.90;;;5.45;72.91;102754.91;4995154;28;20199;-67
2022/01/19 00:29:04;;;;;;;15.95;7.95;;;5.40;99.90;;;5.50;72.77;102741.97;4995232;28;20242;-67
2022/01/19 00:31:33;;;;;;;13.43;9.65;;;5.40;99.90;;;5.48;73.26;102746.59;4994780;28;20374;-67
2022/01/19 00:34:01;;;;;;;14.95;6.45;;;5.40;99.90;;;5.50;72.98;102750.03;4994423;28;20598;-68
2022/01/19 00:36:32;;;;;;;15.60;8.13;;;5.40;99.90;;;5.45;72.64;102738.78;4994413;28;20191;-68
2022/01/19 00:39:03;;;;;;;15.48;8.70;;;5.40;99.90;;;5.35;73.44;102742.34;4995096;28;20190;-67
2022/01/19 00:41:32;;;;;;;13.70;6.93;;;5.40;99.90;;;5.44;72.88;102742.44;4976958;28;20223;-67
2022/01/19 00:44:00;;;;;;;15.70;8.98;;;5.40;99.90;;;5.45;72.68;102746.00;4994522;28;20179;-67
2022/01/19 00:46:28;;;;;;;13.55;8.68;;;5.40;99.90;;;5.43;72.81;102746.09;4994060;28;20218;-68
2022/01/19 00:48:57;;;;;;;18.65;7.82;;;5.40;99.90;;;5.45;73.00;102737.94;4994242;28;20679;-66
2022/01/19 00:51:25;;;;;;;12.15;7.13;;;5.40;99.90;;;5.37;73.02;102730.50;4976850;28;20277;-68
2022/01/19 00:53:55;;;;;;;15.45;8.23;;;5.40;99.90;;;5.43;73.05;102738.06;4994590;28;20171;-67
2022/01/19 00:56:23;;;;;;;13.10;8.98;;;5.40;99.90;;;5.49;73.16;102739.38;4994002;28;20197;-67
2022/01/19 00:58:52;;;;;;;11.60;8.40;;;5.40;99.90;;;5.53;72.65;102741.69;4976608;28;20686;-67
2022/01/19 01:01:21;;;;;;;16.73;8.23;;;5.50;99.90;;;5.44;73.02;102742.44;4993871;28;20284;-67
2022/01/19 01:03:49;;;;;;;11.73;8.15;;;5.40;99.90;;;5.48;72.78;102730.47;4976558;28;20195;-67
2022/01/19 01:06:18;;;;;;;12.75;8.57;;;5.40;99.90;;;5.42;73.12;102733.66;4994048;28;20237;-67
2022/01/19 01:08:46;;;;;;;16.60;7.70;;;5.40;99.90;;;5.45;72.89;102740.63;4994030;28;20214;-67
2022/01/19 01:11:17;;;;;;;19.98;8.23;;;5.40;99.90;;;5.47;73.00;102736.81;4993900;28;20214;-68
2022/01/19 01:16:34;;;;;;;17.83;8.65;;;5.40;99.90;;;5.36;72.76;102731.47;4993851;28;20183;-67
2022/01/19 01:19:06;;;;;;;18.73;10.15;;;5.40;99.90;;;5.45;72.51;102736.09;4993999;28;20221;-67
2022/01/19 01:21:37;;;;;;;18.30;9.85;;;5.40;99.90;;;5.32;73.08;102737.22;4976361;28;20229;-67
2022/01/19 01:24:06;;;;;;;17.90;10.00;;;5.30;99.90;;;5.32;72.85;102730.03;4994014;28;20183;-67
2022/01/19 01:26:36;;;;;;;22.92;9.60;;;5.30;99.90;;;5.33;73.25;102722.78;4976412;28;20186;-67
2022/01/19 01:29:07;;;;;;;23.27;9.07;;;5.30;99.90;;;5.33;72.90;102712.91;4976060;28;20298;-67
2022/01/19 01:31:35;;;;;;;17.45;11.40;;;5.30;99.90;;;5.40;73.13;102698.03;4993743;28;20218;-67
2022/01/19 01:34:04;;;;;;;15.68;9.73;;;5.30;99.90;;;5.34;72.96;102687.78;4993728;28;20189;-67
2022/01/19 01:36:32;;;;;;;23.90;10.40;;;5.40;99.90;;;5.31;72.91;102681.81;4976166;28;20199;-67
2022/01/19 01:39:01;;;;;;;13.65;8.32;;;5.30;99.90;;;5.34;73.30;102685.09;4993686;28;20246;-68
2022/01/19 01:41:30;;;;;;;15.60;8.90;;;5.30;99.90;;;5.38;73.10;102672.28;4993415;28;20203;-67
2022/01/19 01:44:09;;;;;;;18.17;10.43;;;5.30;99.90;;;5.40;73.21;102660.44;4975959;28;20252;-67
2022/01/19 01:46:46;;;;;;;18.90;9.82;;;5.30;99.90;;;5.37;73.17;102649.09;4975866;28;20775;-67
2022/01/19 01:49:23;;;;;;;19.58;11.10;;;5.30;99.90;;;5.33;73.49;102640.44;4975908;28;20219;-67
2022/01/19 01:54:41;;;;;;;16.95;11.02;;;5.30;99.90;;;5.34;73.69;102620.66;4935463;29;20200;-71
2022/01/19 01:57:09;;;;;;;17.42;11.18;;;5.30;99.90;;;5.43;73.22;102611.84;4936438;29;20201;-71
2022/01/19 01:59:40;;;;;;;26.17;11.73;;;5.30;99.90;;;5.37;73.17;102620.44;4940228;29;20756;-70
2022/01/19 02:02:23;;;;;;;20.17;10.88;;;5.40;99.90;;;5.34;73.40;102623.34;4956689;29;20227;-71
2022/01/19 02:04:53;;;;;;;27.80;14.43;;;5.30;99.90;;;5.40;73.25;102627.38;4941929;29;20189;-70
2022/01/19 02:10:18;;;;;;;25.35;13.00;;;5.30;99.90;;;5.38;73.22;102614.06;4945617;29;20204;-71
2022/01/19 02:15:57;;;;;;;19.45;13.38;;;5.30;99.90;;;5.49;73.28;102622.09;4960183;29;20650;-70
2022/01/19 02:21:38;;;;;;;25.05;12.75;;;5.40;99.90;;;5.39;73.25;102615.78;4959666;29;20195;-71
2022/01/19 02:24:11;;;;;;;19.67;11.85;;;5.40;99.90;;;5.35;73.58;102608.09;4957106;29;20204;-71
2022/01/19 02:27:02;;;;;;;29.38;13.57;;;5.40;99.90;;;5.36;73.29;102599.94;4958552;28;20199;-70
2022/01/19 02:30:16;;;;;;;26.33;13.90;;;5.40;99.90;;;5.39;73.64;102593.44;4957106;29;20223;-72
2022/01/19 02:40:58;;;;;;;24.75;12.52;;;5.30;99.90;;;5.40;73.48;102563.78;4959112;29;20219;-70
2022/01/19 02:43:28;;;;;;;20.55;11.48;;;5.30;99.90;;;5.30;73.57;102557.47;4958287;29;20676;-71
2022/01/19 02:51:29;;;;;;;22.55;13.00;;;5.20;99.90;;;5.34;73.78;102537.44;4956453;29;20315;-72
2022/01/19 02:53:59;;;;;;;26.23;12.15;;;5.30;99.90;;;5.37;73.01;102545.25;4947089;28;20735;-71
2022/01/19 02:56:32;;;;;;;19.92;12.18;;;5.30;99.90;;;5.35;73.83;102533.78;4979303;28;20241;-70
2022/01/19 02:59:12;;;;;;;21.70;12.45;;;5.30;99.90;;;5.52;73.54;102525.16;4970519;28;20194;-72
2022/01/19 03:10:01;;;;;;;23.55;12.90;;;5.50;99.90;;;5.46;73.34;102504.22;4975024;28;20293;-70
2022/01/19 03:12:30;;;;;;;23.35;13.05;;;5.40;99.90;;;5.47;73.08;102500.50;4959320;28;20237;-69
2022/01/19 03:14:58;;;;;;;21.25;11.60;;;5.40;99.90;;;5.47;73.49;102492.44;4976193;28;20192;-69
2022/01/19 03:17:27;;;;;;;19.15;12.40;;;5.40;99.90;;;5.54;73.09;102498.16;4958833;28;20623;-70
2022/01/19 03:19:55;;;;;;;19.08;12.57;;;5.50;99.90;;;5.52;72.89;102492.91;4975206;28;20231;-70
2022/01/19 03:22:30;;;;;;;21.10;12.43;;;5.40;99.90;;;5.55;72.49;102492.69;4974697;28;20219;-70
2022/01/19 03:25:00;;;;;;;19.48;10.30;;;5.50;99.90;;;5.58;72.86;102487.03;4958801;28;20199;-70
2022/01/19 03:27:28;;;;;;;20.73;11.30;;;5.50;99.90;;;5.56;72.82;102478.28;4958476;28;20214;-70
2022/01/19 03:29:57;;;;;;;14.40;10.23;;;5.50;99.90;;;5.55;73.11;102476.56;4974809;28;20243;-71
2022/01/19 03:32:26;;;;;;;16.63;11.10;;;5.50;99.90;;;5.63;72.40;102466.00;4974807;28;20231;-72
2022/01/19 03:34:55;;;;;;;23.08;12.07;;;5.60;99.90;;;5.50;72.52;102462.69;4958952;28;20587;-70
2022/01/19 03:37:23;;;;;;;19.80;12.63;;;5.50;99.90;;;5.52;72.52;102468.75;4958768;28;20214;-72
2022/01/19 03:39:51;;;;;;;18.98;11.90;;;5.50;99.90;;;5.49;72.70;102458.28;4959304;28;20196;-68
2022/01/19 03:42:25;;;;;;;21.83;12.82;;;5.40;99.90;;;5.53;72.71;102453.50;4959899;28;20313;-71
2022/01/19 03:44:54;;;;;;;19.75;13.00;;;5.50;99.90;;;5.47;72.70;102451.34;4976700;28;20250;-71
2022/01/19 03:47:22;;;;;;;26.75;14.75;;;5.50;99.90;;;5.49;72.65;102444.84;4976671;28;20740;-71
2022/01/19 03:49:50;;;;;;;25.00;12.88;;;5.50;99.90;;;5.54;72.48;102437.25;4977294;28;20199;-70
2022/01/19 03:52:21;;;;;;;23.25;12.70;;;5.50;99.90;;;5.40;73.24;102442.97;4975195;28;20296;-71
2022/01/19 03:54:51;;;;;;;28.10;13.30;;;5.40;99.90;;;5.37;72.71;102437.88;4959764;28;20195;-70
2022/01/19 03:57:20;;;;;;;18.52;13.27;;;5.40;99.90;;;5.44;72.80;102424.75;4958566;28;20226;-71
2022/01/19 03:59:50;;;;;;;20.52;12.25;;;5.40;99.90;;;5.40;73.24;102428.69;4958752;28;20191;-71
2022/01/19 04:02:19;;;;;;;26.40;12.13;;;5.40;99.90;;;5.36;72.83;102428.09;4958524;28;20223;-70
2022/01/19 04:04:52;;;;;;;23.85;13.90;;;5.30;99.90;;;5.40;72.80;102421.47;4974798;28;20278;-70
2022/01/19 04:07:35;;;;;;;22.92;15.18;;;5.30;99.90;;;5.37;73.04;102419.06;4958667;28;20200;-71
2022/01/19 04:10:06;;;;;;;21.73;12.95;;;5.30;99.90;;;5.28;72.91;102419.84;4976095;28;20578;-70
2022/01/19 04:12:52;;;;;;;28.35;12.95;;;5.30;99.90;;;5.29;73.32;102415.31;4975023;28;20220;-71
2022/01/19 04:15:23;;;;;;;20.48;12.65;;;5.30;99.90;;;5.41;72.71;102420.50;4958537;28;20274;-71
2022/01/19 04:17:54;;;;;;;27.17;13.50;;;5.40;99.90;;;5.42;73.36;102422.19;4958669;28;20187;-70
2022/01/19 04:20:26;;;;;;;23.00;13.20;;;5.40;99.90;;;5.50;72.53;102419.72;4958696;28;20194;-71
2022/01/19 04:23:00;;;;;;;24.05;13.18;;;5.40;99.90;;;5.35;72.78;102412.97;4973340;28;20245;-70
2022/01/19 04:25:28;;;;;;;20.27;13.57;;;5.30;99.90;;;5.35;73.44;102407.59;4958357;28;20210;-70
2022/01/19 04:27:56;;;;;;;25.23;12.70;;;5.30;99.90;;;5.38;72.81;102399.28;4975557;28;20188;-70
2022/01/19 04:30:28;;;;;;;19.10;12.73;;;5.40;99.90;;;5.42;73.01;102395.34;4958081;28;20203;-70
2022/01/19 04:33:07;;;;;;;22.48;15.93;;;5.30;99.90;;;5.37;73.15;102392.22;4958246;28;20218;-70
2022/01/19 04:35:50;;;;;;;22.10;13.90;;;5.30;99.90;;;5.36;72.72;102389.66;4957525;28;20206;-70
2022/01/19 04:47:25;;;;;;;29.42;15.35;;;5.20;99.90;;;5.27;72.78;102352.88;4958217;28;20621;-71
2022/01/19 05:04:02;;;;;;;26.15;14.88;;;5.20;99.90;;;5.32;73.07;102332.72;4959228;28;20255;-70
2022/01/19 05:06:43;;;;;;;22.90;14.93;;;5.30;99.90;;;5.30;73.20;102333.81;4957126;28;20718;-70
2022/01/19 05:09:26;;;;;;;26.73;15.60;;;5.20;99.90;;;5.31;73.48;102339.06;4957424;28;20282;-71
2022/01/19 05:14:42;;;;;;;27.05;17.77;;;5.30;99.90;;;5.36;73.37;102331.47;4957510;28;20694;-70
2022/01/19 05:17:10;;;;;;;22.75;16.70;;;5.30;99.90;;;5.42;72.67;102336.28;4956911;28;20192;-72
2022/01/19 05:19:40;;;;;;;22.30;14.50;;;5.40;99.90;;;5.37;73.07;102322.44;4974223;28;20180;-70
2022/01/19 05:22:09;;;;;;;29.25;17.05;;;5.40;99.90;;;5.31;73.09;102309.53;4957377;28;20272;-70
2022/01/19 05:24:46;;;;;;;32.30;16.90;;;5.30;99.90;;;5.25;73.35;102310.06;4974264;28;20199;-70
2022/01/19 05:27:28;;;;;;;28.20;19.20;;;5.30;99.90;;;5.24;72.95;102311.03;4973143;28;20195;-70
2022/01/19 05:29:56;;;;;;;22.15;16.55;;;5.20;99.90;;;5.14;73.60;102300.25;4974364;28;20215;-70
2022/01/19 05:32:25;;;;;;;23.52;16.75;;;5.20;99.90;;;5.09;73.52;102302.47;4973589;28;20226;-71
2022/01/19 05:34:54;;;;;;;34.38;17.60;;;5.10;99.90;;;5.09;73.59;102296.25;4959647;28;20199;-70
2022/01/19 05:37:44;;;;;;;21.52;16.83;;;5.10;99.90;;;5.04;73.55;102287.75;4947493;28;20203;-71
2022/01/19 05:40:36;;;;;;;20.10;14.80;;;5.00;99.90;;;5.15;73.34;102290.38;4960119;28;20243;-72
2022/01/19 05:43:06;;;;;;;25.83;18.45;;;5.10;99.90;;;5.04;73.85;102295.81;4961990;28;20215;-71
2022/01/19 05:45:35;;;;;;;26.25;18.92;;;5.00;99.90;;;5.08;73.51;102299.94;4961793;28;20273;-70
2022/01/19 05:48:13;;;;;;;29.98;17.70;;;5.00;99.90;;;5.03;74.04;102303.03;4957241;28;20187;-71
2022/01/19 05:50:46;;;;;;;25.48;17.33;;;5.00;99.90;;;5.01;73.81;102302.28;4972710;28;20211;-70
2022/01/19 05:53:18;;;;;;;25.67;18.40;;;5.00;99.90;;;5.02;74.02;102298.63;4972430;28;20471;-71
2022/01/19 05:55:46;;;;;;;25.13;18.98;;;5.00;99.90;;;4.91;73.77;102287.97;4972563;28;20249;-70
2022/01/19 05:58:15;;;;;;;22.27;18.00;;;4.90;99.90;;;4.87;74.28;102283.84;4956329;28;20247;-71
2022/01/19 06:00:46;;;;;;;27.77;19.30;;;4.90;99.90;;;4.87;74.51;102285.69;4956312;28;20279;-71
2022/01/19 06:03:15;;;;;;;30.25;17.60;;;4.80;99.90;;;4.79;75.00;102273.75;4973296;28;20213;-71
2022/01/19 06:06:05;;;;;;;23.98;17.80;;;4.70;99.90;;;4.89;74.07;102267.63;4966591;28;20227;-70
2022/01/19 06:08:44;;;;;;;26.40;18.35;;;4.80;99.90;;;4.92;74.25;102267.34;4973937;28;20223;-70
2022/01/19 06:11:16;;;;;;;28.48;19.27;;;4.80;99.90;;;4.87;74.34;102257.03;4972163;28;20223;-70
2022/01/19 06:13:48;;;;;;;27.35;18.67;;;4.80;99.90;;;5.00;73.99;102248.75;4956466;28;20356;-71
2022/01/19 06:16:17;;;;;;;26.45;18.00;;;4.90;99.90;;;4.93;74.22;102250.28;4972427;28;20204;-72
2022/01/19 06:18:45;;;;;;;25.85;19.27;;;4.90;99.90;;;4.98;74.38;102242.69;4972759;28;20203;-70
2022/01/19 06:21:16;;;;;;;25.00;17.48;;;4.90;99.90;;;4.91;74.08;102233.47;4965942;28;20680;-70
2022/01/19 06:23:49;;;;;;;28.15;18.55;;;4.90;99.90;;;4.98;73.89;102223.91;4937009;29;20191;-70
2022/01/19 06:26:20;;;;;;;31.48;20.63;;;4.90;99.90;;;4.88;74.34;102223.00;4942914;28;20757;-71
2022/01/19 06:28:49;;;;;;;25.90;17.92;;;4.90;99.90;;;4.70;74.38;102210.19;4952688;29;20200;-71
2022/01/19 06:31:18;;;;;;;25.90;18.55;;;4.80;99.90;;;4.78;74.57;102202.34;4948655;28;20294;-71
2022/01/19 06:33:51;;;;;;;25.95;18.77;;;4.80;99.90;;;4.80;74.65;102195.00;4956076;28;20203;-71
2022/01/19 06:36:24;;;;;;;26.42;17.90;;;4.70;99.90;;;4.90;74.40;102188.84;4956055;28;20199;-73
2022/01/19 06:39:13;;;;;;;30.50;18.02;;;4.80;99.90;;;4.84;74.42;102187.56;4972542;28;20211;-70
2022/01/19 06:41:45;;;;;;;29.13;18.65;;;4.80;99.90;;;4.85;74.30;102174.97;4955400;28;20247;-70
2022/01/19 06:44:15;;;;;;;28.80;18.30;;;4.80;99.90;;;4.78;74.63;102169.31;4955431;28;20188;-71
2022/01/19 06:46:45;;;;;;;25.65;20.05;;;4.70;99.90;;;4.71;75.18;102157.41;4958012;28;20198;-71
2022/01/19 06:49:14;;;;;;;43.00;19.00;;;4.70;99.90;;;4.84;74.59;102154.53;4959116;28;20282;-70
2022/01/19 06:51:44;;;;;;;33.63;19.25;;;4.80;99.90;;;4.87;74.66;102157.78;4974887;28;20223;-72
2022/01/19 06:54:13;;;;;;;26.63;19.05;;;4.80;99.90;;;4.91;74.07;102144.94;4959221;28;20196;-70
2022/01/19 06:56:41;;;;;;;27.63;17.75;;;4.90;99.90;;;4.86;73.98;102133.75;4958904;28;20219;-70
2022/01/19 06:59:24;;;;;;;27.77;16.80;;;4.80;99.90;;;4.80;74.43;102124.41;4958941;28;20294;-71
2022/01/19 07:02:07;;;;;;;32.80;20.85;;;4.80;99.90;;;4.67;74.41;102129.16;4958491;28;20207;-70
2022/01/19 07:04:50;;;;;;;27.98;17.63;;;4.70;99.90;;;4.72;74.50;102116.22;4959197;28;20653;-72
2022/01/19 07:07:33;;;;;;;30.83;18.40;;;4.70;99.90;;;4.61;74.64;102117.16;4975017;28;20195;-72
2022/01/19 07:10:06;;;;;;;26.70;18.20;;;4.70;99.90;;;4.69;74.67;102117.34;4975914;28;20691;-71
2022/01/19 07:12:35;;;;;;;27.15;17.02;;;4.70;99.90;;;4.63;74.84;102119.69;4975069;28;20222;-70
2022/01/19 07:15:06;;;;;;;25.30;17.33;;;4.60;99.90;;;4.66;74.71;102111.38;4976228;28;20484;-71
2022/01/19 07:17:35;;;;;;;25.88;17.95;;;4.60;99.90;;;4.72;74.73;102100.13;4975144;28;20196;-72
2022/01/19 07:20:06;;;;;;;23.73;17.25;;;4.60;99.90;;;4.81;74.55;102097.47;4975769;28;20293;-71
2022/01/19 07:22:36;;;;;;;23.83;17.20;;;4.70;99.90;;;4.76;74.20;102091.66;4975816;28;20227;-71
2022/01/19 07:25:07;;;;;;;23.85;18.10;;;4.70;99.90;;;4.76;74.66;102085.44;4958284;28;20196;-71
2022/01/19 07:27:36;;;;;;;25.65;17.60;;;4.70;99.90;;;4.81;74.11;102073.34;4975740;28;20614;-70
2022/01/19 07:30:07;;;;;;;23.20;16.02;;;4.70;99.90;;;4.88;73.92;102078.16;4974353;28;20218;-72
2022/01/19 07:32:37;;;;;;;21.63;14.60;;;4.80;99.90;;;4.89;73.70;102077.19;4957988;28;20606;-70
2022/01/19 07:35:09;;;;;;;25.45;17.45;;;4.80;99.90;;;4.73;74.36;102069.66;4974080;28;20574;-71
2022/01/19 07:37:39;;;;;;;29.88;17.35;;;4.70;99.90;;;4.97;73.71;102077.34;4974125;28;20238;-69
2022/01/19 07:40:11;;;;;;;26.10;15.32;;;4.90;99.90;;;4.80;74.47;102068.09;4974067;28;20187;-72
2022/01/19 07:42:40;;;;;;;25.30;14.85;;;4.80;99.90;;;4.99;73.32;102069.97;4974038;28;20230;-71
2022/01/19 07:45:27;;;;;;;24.92;12.20;;;4.90;99.90;;;4.98;73.03;102057.59;4975708;28;20279;-72
2022/01/19 07:48:16;;;;;;;18.35;12.55;;;4.90;99.90;;;5.05;73.18;102053.34;4975202;28;20270;-72
2022/01/19 07:51:01;;;;;;;23.17;13.15;;;4.90;99.90;;;5.06;73.06;102049.69;4974284;28;20226;-70
2022/01/19 07:53:45;;;;;;;17.23;12.23;;;5.00;99.90;;;5.05;72.85;102045.28;4959177;28;20194;-70
2022/01/19 07:56:34;;;;;;;17.98;11.07;;;5.00;99.90;;;5.12;72.80;102049.13;4972578;28;20214;-71
2022/01/19 07:59:25;;;;;;;18.08;11.13;;;5.10;99.90;;;4.97;72.64;102039.78;4973671;28;20311;-71
2022/01/19 08:02:00;;;;;;;18.02;11.43;;;5.00;99.90;;;5.00;73.02;102036.81;4957656;28;20690;-70
2022/01/19 08:04:48;;;;;;;17.50;11.00;;;4.90;99.90;;;5.07;72.47;102029.91;4975184;28;20256;-71
2022/01/19 08:07:20;;;;;;;23.52;12.52;;;5.00;99.90;;;5.08;72.62;102024.41;4970320;28;20204;-70
2022/01/19 08:09:52;;;;;;;23.23;11.05;;;5.00;99.90;;;5.07;72.40;102024.56;4956742;28;20287;-70
2022/01/19 08:12:21;;;;;;;14.48;10.05;;;5.00;99.90;;;5.03;72.98;102015.09;4954928;29;20228;-70
2022/01/19 08:14:49;;;;;;;20.73;10.85;;;5.00;99.90;;;5.02;72.87;102013.38;4956112;29;20219;-71
2022/01/19 08:17:26;;;;;;;21.92;10.50;;;5.00;99.90;;;5.13;72.74;102010.59;4938729;29;20211;-71
2022/01/19 08:19:55;;;;;;;19.35;12.82;;;5.10;99.90;;;5.23;72.09;102006.91;4954331;29;20204;-71
2022/01/19 08:22:24;;;;;;;18.67;10.32;;;5.20;99.90;;;5.17;72.42;102003.94;4955409;29;20212;-72
2022/01/19 08:25:30;;;;;;;19.65;12.10;;;5.20;99.90;;;5.07;72.89;101998.56;4968410;28;20575;-73
2022/01/19 08:27:58;;;;;;;26.38;13.75;;;5.10;99.90;;;5.17;72.45;101982.47;4976416;28;20227;-72
2022/01/19 08:30:33;;;;;;;19.65;10.82;;;5.20;99.90;;;5.02;72.57;101983.88;4975850;28;20282;-71
2022/01/19 08:33:02;;;;;;;21.05;11.15;;;5.00;99.90;;;4.97;72.23;101983.44;4972641;28;20216;-70
2022/01/19 08:35:46;;;;;;;17.92;10.68;;;5.00;99.90;;;5.09;72.46;101990.34;4974221;28;20172;-71
2022/01/19 08:38:53;;;;;;;20.63;12.48;;;5.00;99.90;;;5.08;72.49;101986.00;4960827;28;20202;-72
2022/01/19 08:41:32;;;;;;;19.33;9.90;;;5.10;99.90;;;4.97;72.61;101984.28;4956795;28;20723;-71
2022/01/19 08:44:00;;;;;;;18.10;12.73;;;5.00;99.90;;;5.04;72.60;101972.00;4973031;28;20684;-72
2022/01/19 08:46:29;;;;;;;16.13;11.65;;;5.00;99.90;;;5.00;72.29;101980.47;4973303;28;20192;-70
2022/01/19 08:49:13;;;;;;;12.30;10.13;;;5.00;99.90;;;4.92;72.73;101977.66;4974525;28;20179;-71
2022/01/19 08:52:01;;;;;;;25.45;11.07;;;4.90;99.90;;;4.90;73.10;101963.50;4969559;28;20231;-71
2022/01/19 08:54:36;;;;;;;16.40;10.13;;;4.90;99.90;;;5.01;72.60;101955.34;4972760;28;20671;-70
2022/01/19 08:57:12;;;;;;;15.35;9.68;;;4.90;99.90;;;5.28;71.65;101960.84;4972704;28;20202;-69
2022/01/19 08:59:41;;;;;;;17.27;9.35;;;5.10;99.90;;;5.12;71.89;101963.28;4973755;28;20183;-72
2022/01/19 09:02:11;;;;;;;13.80;8.55;;;5.10;99.90;;;5.18;71.32;101965.41;4973859;28;20210;-71
2022/01/19 09:04:39;;;;;;;16.63;8.38;;;5.10;99.90;;;5.10;71.29;101959.88;4973848;28;20570;-70
2022/01/19 09:07:08;;;;;;;13.43;8.77;;;5.10;99.90;;;5.21;71.42;101960.59;4974048;28;20563;-71
2022/01/19 09:09:36;;;;;;;15.98;10.73;;;5.10;99.90;;;5.18;71.28;101960.03;4973431;28;20196;-72
2022/01/19 09:12:06;;;;;;;13.52;9.25;;;5.10;99.90;;;5.29;70.87;101953.66;4973800;28;20219;-71
2022/01/19 09:14:36;;;;;;;13.50;9.35;;;5.20;99.90;;;5.25;70.81;101947.72;4974153;28;20191;-72
2022/01/19 09:17:07;;;;;;;16.33;8.85;;;5.20;99.90;;;5.37;70.53;101960.03;4974473;28;20206;-70
2022/01/19 09:19:39;;;;;;;13.68;9.45;;;5.30;99.90;;;5.35;70.56;101942.34;4974159;28;20187;-70
2022/01/19 09:22:10;;;;;;;16.17;9.73;;;5.30;99.90;;;5.38;70.25;101924.09;4973807;28;20214;-71
2022/01/19 09:24:40;;;;;;;13.57;9.55;;;5.30;99.90;;;5.32;70.54;101927.38;4974172;28;20184;-72
2022/01/19 09:27:10;;;;;;;14.57;10.50;;;5.30;99.90;;;5.52;69.93;101934.41;4973914;28;20226;-71
2022/01/19 09:29:42;;;;;;;20.85;10.35;;;5.40;99.90;;;5.58;69.69;101925.78;4974222;28;20195;-71
2022/01/19 09:32:11;;;;;;;18.25;11.05;;;5.50;99.90;;;5.58;70.35;101924.91;4973545;28;20238;-71
2022/01/19 09:34:42;;;;;;;12.65;10.57;;;5.50;99.90;;;5.64;69.69;101925.19;4973782;28;20191;-71
2022/01/19 09:37:11;;;;;;;15.60;11.88;;;5.50;99.90;;;5.71;69.51;101922.78;4979519;28;20176;-71
2022/01/19 09:39:40;;;;;;;20.15;11.00;;;5.60;99.90;;;5.83;68.61;101910.88;4978053;28;20206;-72
2022/01/19 09:42:09;;;;;;;18.88;13.02;;;5.70;99.90;;;5.69;68.93;101906.81;4975056;28;20213;-71
2022/01/19 09:44:39;;;;;;;17.00;11.45;;;5.60;99.90;;;5.75;68.79;101905.38;4973501;28;20299;-70
2022/01/19 09:47:08;;;;;;;16.42;10.27;;;5.70;99.90;;;5.67;68.74;101906.09;4973578;28;20171;-71
2022/01/19 09:49:37;;;;;;;16.45;11.40;;;5.70;99.80;;;5.72;68.34;101910.19;4973645;28;20552;-72
2022/01/19 09:52:06;;;;;;;10.20;9.20;;;5.70;99.90;;;5.66;69.00;101917.00;4973183;28;20254;-73
2022/01/19 09:54:35;;;;;;;12.90;8.98;;;5.70;99.20;;;5.76;68.79;101908.91;4973657;28;20195;-70
2022/01/19 09:57:12;;;;;;;13.30;9.95;;;5.70;99.50;;;5.60;68.63;101905.00;4973357;28;20223;-71
2022/01/19 09:59:42;;;;;;;10.95;9.63;;;5.60;97.70;;;5.67;68.92;101898.03;4973792;28;20180;-72
2022/01/19 10:02:11;;;;;;;15.20;8.90;;;5.60;98.70;;;5.62;68.86;101900.31;4973811;28;20810;-70
2022/01/19 10:04:45;;;;;;;14.73;9.15;;;5.60;98.10;;;5.67;68.83;101895.34;4974006;28;20792;-72
2022/01/19 10:07:19;;;;;;;14.82;10.40;;;5.70;98.10;;;5.79;68.49;101893.34;4975425;28;20191;-73
2022/01/19 10:09:58;;;;;;;12.88;8.65;;;5.70;97.90;;;5.83;68.38;101888.53;4976066;28;20176;-71
2022/01/19 10:18:16;;;;;;;12.10;10.02;;;5.70;96.50;;;5.86;68.08;101869.41;4973530;28;20195;-70
2022/01/19 10:20:47;;;;;;;14.48;9.85;;;5.70;96.60;;;5.93;67.43;101857.97;4975726;28;20528;-72
2022/01/19 10:23:37;;;;;;;11.73;9.35;;;5.80;94.90;;;5.94;67.60;101866.88;4977679;28;20211;-71
2022/01/19 10:26:09;;;;;;;15.98;10.45;;;5.90;93.30;;;5.97;67.77;101858.50;4979436;28;20180;-70
2022/01/19 10:29:01;;;;;;;12.43;9.45;;;5.90;93.70;;;5.98;67.32;101863.75;4978468;28;20207;-71
2022/01/19 10:31:34;;;;;;;12.52;9.98;;;6.00;92.00;;;5.80;67.33;101856.59;4979430;28;20614;-70
2022/01/19 10:34:13;;;;;;;13.93;9.90;;;5.90;90.90;;;5.62;67.62;101854.66;4980139;28;20578;-71
2022/01/19 10:36:47;;;;;;;14.50;9.35;;;5.60;91.30;;;5.62;68.03;101854.66;4978344;28;20201;-70
2022/01/19 10:39:18;;;;;;;12.50;10.60;;;5.60;93.30;;;5.73;67.65;101850.09;4977529;28;20179;-69
2022/01/19 10:42:05;;;;;;;12.40;10.70;;;5.70;93.30;;;5.66;67.74;101845.31;4976702;28;20726;-71
2022/01/19 10:44:36;;;;;;;13.55;9.90;;;5.70;92.30;;;5.65;67.89;101851.72;4976849;28;20271;-71
2022/01/19 10:47:56;;;;;;;16.30;9.65;;;5.70;93.50;;;5.70;67.93;101837.84;4976749;28;20175;-72
2022/01/19 10:50:28;;;;;;;15.07;10.80;;;5.70;94.00;;;5.76;67.94;101834.53;4917220;29;20198;-69
2022/01/19 10:53:05;;;;;;;13.85;10.45;;;5.70;93.80;;;5.82;67.72;101831.25;4968033;28;20277;-72
2022/01/19 10:55:40;;;;;;;12.85;11.13;;;5.70;92.80;;;5.90;67.49;101817.97;4978166;28;20203;-72
2022/01/19 10:58:14;;;;;;;17.80;11.50;;;5.90;92.80;;;5.99;67.54;101814.41;4978224;28;20269;-71
2022/01/19 11:00:51;;;;;;;17.52;10.98;;;5.90;92.80;;;5.99;67.31;101816.25;4979179;28;20183;-70
2022/01/19 11:03:25;;;;;;;15.77;12.00;;;5.90;92.80;;;5.88;67.67;101805.69;4980670;28;20257;-71
2022/01/19 11:05:57;;;;;;;12.73;11.40;;;5.90;91.60;;;5.74;67.67;101798.09;4980630;28;20306;-72
2022/01/19 11:08:27;;;;;;;13.07;11.68;;;5.80;92.00;;;5.56;68.22;101793.53;4982336;28;20669;-71
2022/01/19 11:11:01;;;;;;;21.08;13.25;;;5.60;92.70;;;5.61;68.23;101783.19;4979197;28;20298;-71
2022/01/19 11:13:33;;;;;;;17.73;13.70;;;5.60;94.40;;;5.61;68.42;101771.59;4980904;28;20262;-70
2022/01/19 11:16:04;;;;;;;19.83;15.10;;;5.60;94.80;;;5.80;68.33;101754.53;4962374;28;20199;-72
2022/01/19 11:18:39;;;;;;;21.27;16.60;;;5.70;95.90;;;5.87;67.44;101745.72;4979262;28;20260;-71
2022/01/19 11:21:12;;;;;;;23.70;18.15;;;5.70;94.30;;;5.86;67.47;101738.63;4976010;28;20246;-71
2022/01/19 11:23:52;;;;;;;25.55;19.85;;;5.70;93.30;;;5.77;67.39;101730.63;4976043;28;20176;-72
2022/01/19 11:26:29;;;;;;;22.15;19.55;;;5.80;92.10;;;5.35;68.15;101723.09;4976239;28;20164;-70
2022/01/19 11:29:18;;;;;;;27.85;21.10;;;5.50;93.50;;;5.20;69.01;101716.50;4975812;28;20223;-71
2022/01/19 11:31:48;;;;;;;23.73;19.73;;;5.20;96.50;;;5.31;68.58;101716.34;4957987;28;20225;-70
2022/01/19 11:34:40;;;;;;;28.10;20.27;;;5.20;97.80;;;5.32;68.59;101709.97;4975427;28;20192;-70
2022/01/19 11:37:08;;;;;;;27.73;20.20;;;5.30;96.50;;;5.36;68.37;101708.69;4975694;28;20191;-71
2022/01/19 11:39:37;;;;;;;24.80;20.35;;;5.30;95.70;;;4.83;69.22;101695.06;4975515;28;20183;-71
2022/01/19 11:42:07;;;;;;;26.15;21.10;;;5.00;94.90;;;4.85;69.46;101698.41;4975616;28;20718;-71
2022/01/19 11:44:42;;;;;;;27.65;22.40;;;5.00;98.30;;;4.94;69.82;101680.63;4975485;28;20653;-70
2022/01/19 11:47:22;;;;;;;29.95;21.20;;;4.80;99.90;;;4.97;69.15;101677.63;4975525;28;20186;-70
2022/01/19 11:49:57;;;;;;;33.50;24.45;;;4.90;99.90;;;4.92;69.47;101667.34;4975495;28;20175;-71